Time;durP1;ratioP1;P1;durP2;ratioP2;P2;SDS_P1;SDS_P2;PMS_P1;PMS_P2;Temp;Humidity;BMP_temperature;BMP_pressure;BME280_temperature;BME280_humidity;BME280_pressure;Samples;Min_cycle;Max_cycle;Signal;HPM_P1;HPM_P2
2022/12/25 00:03:04;;;;;;;12.95;3.78;;;18.80;99.90;;;-147.18;100.00;67318.16;4984710;28;20058;-71
2022/12/25 00:06:31;;;;;;;8.23;3.33;;;18.80;99.90;;;-147.18;100.00;67318.16;4989565;28;20042;-70
2022/12/25 00:09:57;;;;;;;8.32;3.17;;;18.80;99.90;;;-147.18;100.00;67318.16;4990182;28;20410;-70
2022/12/25 00:13:22;;;;;;;8.82;3.42;;;18.80;99.90;;;-147.18;100.00;67318.16;4990761;28;20053;-70
2022/12/25 00:16:48;;;;;;;9.45;3.25;;;18.80;99.90;;;-147.18;100.00;67318.16;4992397;28;20042;-71
2022/12/25 00:20:13;;;;;;;10.45;3.70;;;18.80;99.90;;;-147.18;100.00;67318.16;4990382;28;20126;-70
2022/12/25 00:23:41;;;;;;;9.55;3.28;;;18.80;99.90;;;-147.18;100.00;67318.16;4978516;28;20570;-71
2022/12/25 00:27:08;;;;;;;8.98;3.10;;;18.80;99.90;;;-147.18;100.00;67318.16;4987282;28;20038;-71
2022/12/25 00:30:34;;;;;;;10.25;3.42;;;18.80;99.90;;;-147.18;100.00;67318.16;4975324;28;20495;-70
2022/12/25 00:34:00;;;;;;;7.45;2.95;;;18.80;99.90;;;-147.18;100.00;67318.16;4988817;28;20039;-71
2022/12/25 00:37:25;;;;;;;9.10;3.10;;;18.80;99.90;;;-147.18;100.00;67318.16;4998227;28;20042;-70
2022/12/25 00:40:52;;;;;;;8.40;3.17;;;18.80;99.90;;;-147.18;100.00;67318.16;4986770;28;20056;-71
2022/12/25 00:44:18;;;;;;;9.00;3.35;;;18.80;99.90;;;-147.18;100.00;67318.16;4993890;28;20117;-70
2022/12/25 00:47:44;;;;;;;9.00;3.38;;;18.80;99.90;;;-147.18;100.00;67318.16;4990185;28;20046;-71
2022/12/25 00:51:11;;;;;;;8.57;2.55;;;18.80;99.90;;;-147.18;100.00;67318.16;4986420;28;20037;-70
2022/12/25 00:54:37;;;;;;;8.75;3.03;;;18.80;99.90;;;-147.18;100.00;67318.16;4992926;28;20144;-70
2022/12/25 00:58:04;;;;;;;4.75;2.30;;;18.80;99.90;;;-147.18;100.00;67318.16;4979028;28;20051;-70
2022/12/25 01:01:29;;;;;;;8.75;3.03;;;18.80;99.90;;;-147.18;100.00;67318.16;4992234;28;20062;-70
2022/12/25 01:04:55;;;;;;;7.50;2.75;;;18.80;99.90;;;-147.18;100.00;67318.16;4971271;28;20388;-70
2022/12/25 01:08:23;;;;;;;6.50;2.83;;;18.80;99.90;;;-147.18;100.00;67318.16;4989231;28;20065;-71
2022/12/25 01:11:52;;;;;;;6.35;2.67;;;18.80;99.90;;;-147.18;100.00;67318.16;4986938;28;20053;-70
2022/12/25 01:15:19;;;;;;;6.50;3.00;;;18.80;99.90;;;-147.18;100.00;67318.16;4985600;28;20039;-71
2022/12/25 01:18:46;;;;;;;9.18;2.70;;;18.80;99.90;;;-147.18;100.00;67318.16;4992831;28;20034;-71
2022/12/25 01:22:15;;;;;;;7.47;2.35;;;18.80;99.90;;;-147.18;100.00;67318.16;4989015;28;20573;-71
2022/12/25 01:25:40;;;;;;;7.05;2.47;;;18.80;99.90;;;-147.18;100.00;67318.16;4996594;28;20038;-71
2022/12/25 01:29:06;;;;;;;6.65;2.30;;;18.80;99.90;;;-147.18;100.00;67318.16;4990156;28;20052;-71
2022/12/25 01:32:33;;;;;;;6.32;2.50;;;18.80;99.90;;;-147.18;100.00;67318.16;4989143;28;20034;-70
2022/12/25 01:35:59;;;;;;;7.18;2.88;;;18.80;99.90;;;-147.18;100.00;67318.16;4987969;28;20069;-71
2022/12/25 01:39:25;;;;;;;6.22;2.38;;;18.80;99.90;;;-147.18;100.00;67318.16;4993283;28;20034;-71
2022/12/25 01:42:50;;;;;;;8.07;2.60;;;18.80;99.90;;;-147.18;100.00;67318.16;4994773;28;20045;-70
2022/12/25 01:46:42;;;;;;;6.07;2.45;;;18.70;99.90;;;-147.18;100.00;67318.16;4996883;28;20034;-71
2022/12/25 01:50:10;;;;;;;4.70;2.30;;;18.80;99.90;;;-147.18;100.00;67318.16;4992028;28;20042;-71
2022/12/25 01:53:36;;;;;;;5.88;2.00;;;18.70;99.90;;;-147.18;100.00;67318.16;5003360;28;20046;-70
2022/12/25 01:57:06;;;;;;;6.40;2.30;;;18.80;99.90;;;-147.18;100.00;67318.16;4993104;28;20521;-70
2022/12/25 02:00:32;;;;;;;4.90;2.00;;;18.70;99.90;;;-147.18;100.00;67318.16;4990708;28;20046;-71
2022/12/25 02:04:02;;;;;;;5.28;2.00;;;18.80;99.90;;;-147.18;100.00;67318.16;5000163;28;20077;-70
2022/12/25 02:07:29;;;;;;;5.93;2.20;;;18.80;99.90;;;-147.18;100.00;67318.16;4987140;28;20039;-70
2022/12/25 02:10:55;;;;;;;5.60;2.10;;;18.70;99.90;;;-147.18;100.00;67318.16;4992917;28;20042;-70
2022/12/25 02:14:20;;;;;;;4.85;1.90;;;18.70;99.90;;;-147.18;100.00;67318.16;5003691;28;20041;-71
2022/12/25 02:17:54;;;;;;;4.70;1.85;;;18.70;99.90;;;-147.18;100.00;67318.16;5004651;28;20041;-70
2022/12/25 02:22:06;;;;;;;5.30;1.90;;;18.70;99.90;;;-147.18;100.00;67318.16;4992571;28;20046;-70
2022/12/25 02:25:53;;;;;;;4.38;1.90;;;18.80;99.90;;;-147.18;100.00;67318.16;4989985;28;20034;-71
2022/12/25 02:29:29;;;;;;;5.82;2.17;;;18.70;99.90;;;-147.18;100.00;67318.16;4992568;28;20050;-70
2022/12/25 02:34:01;;;;;;;6.55;2.08;;;18.80;99.90;;;-147.18;100.00;67318.16;4992406;28;20077;-70
2022/12/25 02:36:49;;;;;;;6.13;1.98;;;18.80;99.90;;;-147.18;100.00;67318.16;4993318;28;20046;-70
2022/12/25 02:40:22;;;;;;;6.40;2.40;;;18.80;99.90;;;-147.18;100.00;67318.16;4993962;28;20120;-70
2022/12/25 03:06:45;;;;;;;5.95;1.90;;;18.90;99.90;;;-147.18;100.00;67318.16;4994639;28;20514;-69
2022/12/25 03:17:45;;;;;;;3.25;1.40;;;18.80;99.90;;;-147.18;100.00;67318.16;4991498;28;20062;-70
2022/12/25 03:28:41;;;;;;;3.92;1.40;;;18.80;99.90;;;-147.18;100.00;67318.16;4988944;28;20494;-75
2022/12/25 03:32:18;;;;;;;4.85;1.83;;;19.00;99.90;;;-147.18;100.00;67318.16;4989163;28;20046;-76
2022/12/25 03:36:02;;;;;;;5.45;2.17;;;18.80;99.90;;;-147.18;100.00;67318.16;4999339;28;20041;-75
2022/12/25 04:36:20;;;;;;;2.95;1.17;;;18.70;99.90;;;-147.18;100.00;67318.16;4988328;28;20175;-75
2022/12/25 04:39:46;;;;;;;3.65;1.20;;;18.70;99.90;;;-147.18;100.00;67318.16;4988299;28;20396;-75
2022/12/25 04:43:12;;;;;;;3.78;1.30;;;18.70;99.90;;;-147.18;100.00;67318.16;4989150;28;20049;-75
2022/12/25 04:46:37;;;;;;;3.13;1.33;;;18.80;99.90;;;-147.18;100.00;67318.16;4988171;28;20045;-75
2022/12/25 04:50:04;;;;;;;3.50;1.35;;;18.80;99.90;;;-147.18;100.00;67318.16;4988749;28;20044;-75
2022/12/25 04:53:33;;;;;;;2.78;1.27;;;18.80;99.90;;;-147.18;100.00;67318.16;4984162;28;20038;-75
2022/12/25 04:57:00;;;;;;;4.55;1.50;;;18.80;99.90;;;-147.18;100.00;67318.16;5003993;28;20121;-75
2022/12/25 05:00:25;;;;;;;3.85;1.40;;;18.80;99.90;;;-147.18;100.00;67318.16;5009696;28;20569;-76
2022/12/25 05:03:51;;;;;;;3.97;1.55;;;18.80;99.90;;;-147.18;100.00;67318.16;4998846;28;20047;-75
2022/12/25 05:07:18;;;;;;;2.88;1.15;;;18.80;99.90;;;-147.18;100.00;67318.16;4995154;28;20043;-75
2022/12/25 05:10:44;;;;;;;4.35;1.38;;;18.80;99.90;;;-147.18;100.00;67318.16;4985832;28;20038;-76
2022/12/25 05:14:09;;;;;;;9.23;1.50;;;18.80;99.90;;;-147.18;100.00;67318.16;4989897;28;20038;-86
2022/12/25 05:17:36;;;;;;;6.63;1.75;;;18.80;99.90;;;-147.18;100.00;67318.16;4981804;28;20035;-81
2022/12/25 05:21:03;;;;;;;5.50;1.58;;;18.80;99.90;;;-147.18;100.00;67318.16;5007687;28;20038;-81
2022/12/25 05:24:30;;;;;;;5.55;1.70;;;18.80;99.90;;;-147.18;100.00;67318.16;4970145;28;20054;-79
2022/12/25 05:27:56;;;;;;;4.63;1.52;;;18.80;99.90;;;-147.18;100.00;67318.16;4988776;28;20046;-78
2022/12/25 05:31:22;;;;;;;3.63;1.45;;;18.70;99.90;;;-147.18;100.00;67318.16;4994493;28;20117;-80
2022/12/25 05:34:50;;;;;;;6.40;1.33;;;18.80;99.90;;;-147.18;100.00;67318.16;4989278;28;20038;-80
2022/12/25 05:38:16;;;;;;;4.10;1.40;;;18.70;99.90;;;-147.18;100.00;67318.16;5007691;28;20396;-79
2022/12/25 05:41:43;;;;;;;4.25;1.42;;;18.80;99.90;;;-147.18;100.00;67318.16;4969946;28;20054;-80
2022/12/25 05:45:09;;;;;;;4.90;1.33;;;18.80;99.90;;;-147.18;100.00;67318.16;4990981;28;20034;-80
2022/12/25 05:48:35;;;;;;;5.13;1.52;;;18.70;99.90;;;-147.18;100.00;67318.16;4995426;28;20046;-80
2022/12/25 05:52:04;;;;;;;4.45;1.20;;;18.80;99.90;;;-147.18;100.00;67318.16;5007761;28;20506;-80
2022/12/25 05:55:29;;;;;;;3.42;1.20;;;18.70;99.90;;;-147.18;100.00;67318.16;4993901;28;20038;-79
2022/12/25 05:58:56;;;;;;;2.67;1.10;;;18.70;99.90;;;-147.18;100.00;67318.16;4993744;28;20042;-79
2022/12/25 06:02:24;;;;;;;3.85;1.45;;;18.70;99.90;;;-147.18;100.00;67318.16;4997140;28;20042;-79
2022/12/25 06:05:50;;;;;;;3.38;1.10;;;18.70;99.90;;;-147.18;100.00;67318.16;4987632;28;20046;-80
2022/12/25 06:09:15;;;;;;;4.13;1.33;;;18.70;99.90;;;-147.18;100.00;67318.16;5009269;28;20038;-79
2022/12/25 06:12:41;;;;;;;2.83;1.13;;;18.80;99.90;;;-147.18;100.00;67318.16;4989840;28;20046;-81
2022/12/25 06:16:10;;;;;;;2.85;1.15;;;18.70;99.90;;;-147.18;100.00;67318.16;4984482;28;20041;-80
2022/12/25 06:19:36;;;;;;;3.88;1.20;;;18.70;99.90;;;-147.18;100.00;67318.16;5000373;28;20045;-80
2022/12/25 06:23:01;;;;;;;4.25;1.25;;;18.70;99.90;;;-147.18;100.00;67318.16;4989174;28;20646;-80
2022/12/25 06:26:27;;;;;;;3.83;1.10;;;18.70;99.90;;;-147.18;100.00;67318.16;4994236;28;20057;-81
2022/12/25 06:29:53;;;;;;;4.32;1.10;;;18.70;99.90;;;-147.18;100.00;67318.16;5002151;28;20060;-82
2022/12/25 06:33:20;;;;;;;3.33;1.17;;;18.70;99.90;;;-147.18;100.00;67318.16;4990841;28;20129;-80
2022/12/25 06:36:46;;;;;;;2.65;1.10;;;18.70;99.90;;;-147.18;100.00;67318.16;4993787;28;20066;-81
2022/12/25 06:40:12;;;;;;;3.92;1.15;;;18.70;99.90;;;-147.18;100.00;67318.16;5000491;28;20050;-81
2022/12/25 06:43:38;;;;;;;3.13;1.13;;;18.70;99.90;;;-147.18;100.00;67318.16;5006164;28;20050;-81
2022/12/25 06:47:05;;;;;;;4.70;1.15;;;18.70;99.90;;;-147.18;100.00;67318.16;4991600;28;20506;-81
2022/12/25 06:50:32;;;;;;;4.65;1.35;;;18.70;99.90;;;-147.18;100.00;67318.16;4997883;28;20034;-81
2022/12/25 06:53:58;;;;;;;3.80;1.17;;;18.90;99.90;;;-147.18;100.00;67318.16;5002377;28;20141;-81
2022/12/25 06:57:25;;;;;;;3.65;1.40;;;18.70;99.90;;;-147.18;100.00;67318.16;4998021;28;20387;-81
2022/12/25 07:00:51;;;;;;;2.83;1.20;;;18.70;99.90;;;-147.18;100.00;67318.16;4982402;28;20145;-78
2022/12/25 07:04:21;;;;;;;15.15;1.55;;;18.70;99.90;;;-147.18;100.00;67318.16;4990074;28;20039;-72
2022/12/25 07:07:48;;;;;;;9.77;1.52;;;18.70;99.90;;;-147.18;100.00;67318.16;5000057;28;20042;-72
2022/12/25 07:11:13;;;;;;;6.20;1.33;;;18.80;99.90;;;-147.18;100.00;67318.16;4991290;28;20046;-72
2022/12/25 07:14:39;;;;;;;3.55;1.15;;;18.80;99.90;;;-147.18;100.00;67318.16;4996093;28;20046;-72
2022/12/25 07:18:05;;;;;;;5.57;1.55;;;18.80;99.90;;;-147.18;100.00;67318.16;5002705;28;20112;-72
2022/12/25 07:21:30;;;;;;;2.95;1.00;;;18.80;99.90;;;-147.18;100.00;67318.16;4984989;28;20049;-72
2022/12/25 07:24:57;;;;;;;3.95;1.60;;;18.80;99.90;;;-147.18;100.00;67318.16;5006146;28;20079;-72
2022/12/25 07:28:23;;;;;;;6.90;1.60;;;18.80;99.90;;;-147.18;100.00;67318.16;5011560;28;20050;-72
2022/12/25 07:31:49;;;;;;;3.05;1.10;;;18.80;99.90;;;-147.18;100.00;67318.16;4990762;28;20046;-72
2022/12/25 07:35:15;;;;;;;5.97;1.02;;;18.80;99.90;;;-147.18;100.00;67318.16;4999536;28;20414;-72
2022/12/25 07:38:41;;;;;;;3.53;1.10;;;18.80;99.90;;;-147.18;100.00;67318.16;4972199;28;20046;-71
2022/12/25 07:42:08;;;;;;;5.00;1.38;;;18.80;99.90;;;-147.18;100.00;67318.16;5010406;28;20417;-72
2022/12/25 07:45:34;;;;;;;3.50;1.08;;;18.80;99.90;;;-147.18;100.00;67318.16;4991686;28;20049;-72
2022/12/25 07:49:00;;;;;;;3.40;1.10;;;18.80;99.90;;;-147.18;100.00;67318.16;4998223;28;20521;-71
2022/12/25 07:52:25;;;;;;;4.57;1.20;;;18.80;99.90;;;-147.18;100.00;67318.16;4983685;28;20038;-71
2022/12/25 07:55:56;;;;;;;5.55;1.23;;;18.80;99.90;;;-147.18;100.00;67318.16;4985194;28;20129;-72
2022/12/25 07:59:23;;;;;;;3.00;1.10;;;18.80;99.90;;;-147.18;100.00;67318.16;4984588;28;20055;-72
2022/12/25 08:02:49;;;;;;;3.63;1.27;;;18.70;99.90;;;-147.18;100.00;67318.16;4983668;28;20053;-71
2022/12/25 08:06:14;;;;;;;2.53;1.00;;;18.80;99.90;;;-147.18;100.00;67318.16;4976013;28;20524;-72
2022/12/25 08:09:40;;;;;;;2.70;1.10;;;18.80;99.90;;;-147.18;100.00;67318.16;4976235;28;20040;-72
2022/12/25 08:13:06;;;;;;;3.63;1.17;;;18.80;99.90;;;-147.18;100.00;67318.16;4980533;28;20034;-71
2022/12/25 08:16:33;;;;;;;3.83;1.17;;;18.80;99.90;;;-147.18;100.00;67318.16;4981504;28;20035;-72
2022/12/25 08:19:58;;;;;;;2.67;1.02;;;18.80;99.90;;;-147.18;100.00;67318.16;4982209;28;20046;-72
2022/12/25 08:23:24;;;;;;;2.88;1.00;;;18.70;99.90;;;-147.18;100.00;67318.16;4988377;28;20126;-72
2022/12/25 08:26:50;;;;;;;3.00;1.10;;;18.80;99.90;;;-147.18;100.00;67318.16;4988240;28;20133;-72
2022/12/25 08:30:15;;;;;;;4.50;1.10;;;18.80;99.90;;;-147.18;100.00;67318.16;4996315;28;20042;-72
2022/12/25 08:33:43;;;;;;;3.08;0.90;;;18.80;99.90;;;-147.18;100.00;67318.16;4967853;28;20587;-72
2022/12/25 08:37:10;;;;;;;4.38;1.20;;;18.90;99.90;;;-147.18;100.00;67318.16;4993769;28;20048;-72
2022/12/25 08:40:35;;;;;;;3.15;1.10;;;18.80;99.90;;;-147.18;100.00;67318.16;4989389;28;20042;-72
2022/12/25 08:44:01;;;;;;;5.13;1.20;;;18.80;99.90;;;-147.18;100.00;67318.16;4970377;28;20456;-71
2022/12/25 08:47:27;;;;;;;4.22;1.25;;;18.90;99.90;;;-147.18;100.00;67318.16;5000365;28;20037;-72
2022/12/25 08:50:54;;;;;;;5.97;1.20;;;18.90;99.90;;;-147.18;100.00;67318.16;4995696;28;20057;-73
2022/12/25 08:54:20;;;;;;;3.67;1.20;;;18.90;99.90;;;-147.18;100.00;67318.16;5008767;28;20045;-73
2022/12/25 08:57:45;;;;;;;3.60;1.10;;;18.90;99.90;;;-147.18;100.00;67318.16;4997963;28;20040;-73
2022/12/25 09:01:12;;;;;;;4.10;1.23;;;19.00;99.90;;;-147.18;100.00;67318.16;5009605;28;20063;-70
2022/12/25 09:04:38;;;;;;;9.13;1.33;;;19.00;99.90;;;-147.18;100.00;67318.16;4972605;28;20057;-69
2022/12/25 09:08:05;;;;;;;5.10;1.20;;;18.90;99.90;;;-147.18;100.00;67318.16;5002416;28;20045;-69
2022/12/25 09:11:34;;;;;;;7.00;1.55;;;18.90;99.90;;;-147.18;100.00;67318.16;4989720;28;20048;-69
2022/12/25 09:14:59;;;;;;;11.98;3.35;;;18.90;99.90;;;-147.18;100.00;67318.16;4991513;28;20046;-77
2022/12/25 09:34:56;;;;;;;17.40;3.58;;;18.50;99.90;;;18.32;49.51;100261.06;5086492;28;20209;-71
2022/12/25 09:37:23;;;;;;;21.80;5.22;;;18.50;99.90;;;17.16;53.33;100264.88;5057328;28;20075;-67
2022/12/25 09:39:50;;;;;;;15.80;5.68;;;18.50;99.90;;;16.86;54.34;100278.94;5057745;28;20049;-66
2022/12/25 09:42:21;;;;;;;18.08;5.40;;;18.60;99.90;;;16.71;55.05;100258.03;5060604;28;20041;-66
2022/12/25 09:44:51;;;;;;;;;;;18.70;99.90;;;16.65;55.34;100259.09;5063639;28;20116;-66
2022/12/25 09:47:24;;;;;;;11.18;4.07;;;18.70;99.90;;;16.66;55.31;100268.78;5064136;28;20384;-67
2022/12/25 09:49:58;;;;;;;12.77;4.43;;;18.80;99.90;;;16.63;55.27;100264.69;5054138;28;20044;-67
2022/12/25 09:52:34;;;;;;;15.13;4.22;;;18.90;99.90;;;16.65;55.32;100267.16;5064267;28;20408;-67
2022/12/25 09:55:11;;;;;;;20.50;4.28;;;19.00;99.90;;;16.86;54.72;100274.34;5057581;28;81394;-70
2022/12/25 09:57:38;;;;;;;26.92;4.78;;;19.00;99.90;;;17.03;54.56;100276.09;5059394;28;64079;-65
2022/12/25 10:00:15;;;;;;;11.75;3.83;;;19.10;99.90;;;17.30;54.20;100270.63;5063205;28;20133;-67
2022/12/25 10:03:34;;;;;;;12.23;3.88;;;19.30;99.90;;;17.18;54.61;100265.44;5061572;28;89505;-68
2022/12/25 10:35:31;;;;;;;24.05;3.53;;;18.60;62.60;;;17.21;54.75;100184.84;5105335;27;20129;-69
2022/12/25 10:38:02;;;;;;;13.45;3.20;;;18.20;65.50;;;17.16;54.06;100179.44;5058571;28;69025;-68
2022/12/25 10:40:38;;;;;;;8.55;3.15;;;18.20;64.10;;;17.15;54.89;100185.09;5024574;28;20100;-75
2022/12/25 10:43:12;;;;;;;8.50;2.92;;;18.00;65.40;;;17.69;54.16;100179.38;5035615;28;20128;-65
2022/12/25 11:30:37;;;;;;;42.28;10.15;;;20.20;61.70;;;19.23;49.72;100100.75;5101392;27;20870;-80
2022/12/25 11:33:10;;;;;;;36.20;9.38;;;20.10;60.50;;;19.02;50.15;100089.19;5083486;28;20047;-84
2022/12/25 11:35:47;;;;;;;36.67;9.70;;;20.00;59.90;;;18.97;50.19;100083.00;5085796;28;20048;-79
2022/12/25 11:38:14;;;;;;;37.65;9.10;;;20.00;59.90;;;18.98;49.95;100071.94;5084961;28;20044;-84
2022/12/25 11:40:47;;;;;;;32.28;7.95;;;20.10;60.10;;;19.06;49.90;100067.84;5082626;28;20408;-82
2022/12/25 11:43:21;;;;;;;30.40;7.68;;;20.10;60.10;;;19.16;49.81;100059.66;5084713;28;20050;-81
2022/12/25 11:46:02;;;;;;;28.25;8.27;;;20.20;59.80;;;19.27;49.30;100057.72;5082034;28;20082;-79
2022/12/25 11:48:35;;;;;;;28.13;7.97;;;20.30;59.10;;;19.35;49.15;100040.91;5084545;28;20047;-74
2022/12/25 11:51:06;;;;;;;28.80;7.90;;;20.40;58.70;;;19.39;49.46;100031.16;5084411;28;20036;-77
2022/12/25 11:53:40;;;;;;;41.60;7.93;;;20.40;58.60;;;19.49;48.93;100024.88;5084802;28;20115;-79
2022/12/25 11:56:09;;;;;;;35.78;7.35;;;20.50;58.10;;;19.56;48.39;100025.34;5084636;28;20063;-76
2022/12/25 11:58:43;;;;;;;25.95;6.25;;;20.50;57.90;;;19.64;48.67;100016.66;5085989;28;20553;-90
2022/12/25 12:01:23;;;;;;;24.65;6.43;;;20.50;57.90;;;19.67;48.18;100002.59;5084037;28;20032;-80
2022/12/25 12:03:53;;;;;;;31.02;7.10;;;20.50;57.80;;;19.71;47.81;100010.94;5084316;28;20043;-80
2022/12/25 12:06:32;;;;;;;25.13;6.77;;;20.50;57.80;;;19.71;48.06;100017.13;5083694;28;20124;-81
2022/12/25 12:09:24;;;;;;;23.73;5.95;;;20.60;58.10;;;19.72;48.46;100007.16;5086859;28;20302;-76
2022/12/25 12:12:01;;;;;;;20.55;5.55;;;20.60;58.40;;;19.68;48.00;100012.31;5086289;28;20072;-79
2022/12/25 12:14:46;;;;;;;22.77;6.30;;;20.70;57.80;;;19.72;47.80;100017.97;5081438;28;20238;-80
2022/12/25 12:17:21;;;;;;;21.25;6.10;;;20.70;57.30;;;19.76;47.70;100014.44;5083410;28;20127;-85
2022/12/25 12:19:49;;;;;;;25.15;5.30;;;20.70;57.10;;;19.77;47.45;99999.78;5084930;28;20043;-86
2022/12/25 12:22:28;;;;;;;14.38;5.03;;;20.80;57.00;;;19.79;47.27;100005.72;5084220;28;20044;-78
2022/12/25 12:25:01;;;;;;;18.30;4.93;;;20.80;56.90;;;19.79;47.38;100004.91;5084927;28;20044;-82
2022/12/25 12:27:37;;;;;;;20.35;5.32;;;20.80;56.70;;;19.76;47.51;100000.91;5081121;28;20059;-79
2022/12/25 12:30:23;;;;;;;33.17;4.97;;;20.70;57.10;;;19.68;47.90;99989.88;5084248;28;20062;-77
2022/12/25 12:32:54;;;;;;;15.48;4.80;;;20.70;57.40;;;19.60;48.03;99987.75;5092026;28;20119;-85
2022/12/25 12:35:27;;;;;;;18.45;5.07;;;20.70;57.80;;;19.52;48.38;99981.00;5080293;28;20056;-72
2022/12/25 12:37:59;;;;;;;17.95;4.72;;;20.60;57.60;;;19.18;48.90;99998.03;5082179;28;20083;-68
2022/12/25 12:40:36;;;;;;;13.50;5.10;;;20.30;57.50;;;18.85;49.74;99999.56;5077567;28;20036;-69
2022/12/25 12:43:05;;;;;;;17.40;4.30;;;20.00;58.60;;;18.61;50.33;99998.53;5067801;28;20043;-69
2022/12/25 12:45:36;;;;;;;14.77;4.53;;;19.70;59.50;;;18.43;50.58;99987.25;5068945;28;20056;-69
2022/12/25 12:48:15;;;;;;;10.18;3.92;;;19.50;60.20;;;18.28;50.90;100001.59;5068173;28;20044;-70
2022/12/25 12:50:43;;;;;;;15.95;4.53;;;19.30;60.80;;;18.17;51.17;99983.00;5066477;28;20054;-72
2022/12/25 12:53:32;;;;;;;18.67;4.40;;;19.20;61.20;;;18.09;51.67;99983.56;5066300;28;20037;-66
2022/12/25 12:56:20;;;;;;;12.50;4.03;;;19.10;61.90;;;17.99;52.13;99987.88;5065309;28;20567;-66
2022/12/25 12:58:49;;;;;;;11.82;4.10;;;19.00;62.40;;;17.95;52.33;99969.81;5056402;28;20527;-68
2022/12/25 13:01:42;;;;;;;10.70;3.92;;;18.90;62.70;;;17.91;52.33;99958.78;5059238;28;20477;-68
2022/12/25 13:04:51;;;;;;;13.13;4.13;;;18.90;63.00;;;17.88;52.39;99958.50;5064087;28;72672;-68
2022/12/25 13:07:42;;;;;;;9.25;3.75;;;18.80;62.90;;;17.84;52.61;99960.94;5062197;28;20048;-68
2022/12/25 13:10:19;;;;;;;;;;;18.80;63.10;;;17.81;52.56;99955.25;5065551;28;20101;-68
2022/12/25 13:12:50;;;;;;;11.15;3.60;;;18.80;63.20;;;17.79;52.82;99954.75;5061051;28;19938;-68
2022/12/25 13:15:19;;;;;;;9.80;3.60;;;18.70;63.50;;;17.77;52.84;99957.72;5064815;28;20148;-69
2022/12/25 13:17:48;;;;;;;7.07;2.80;;;18.70;63.60;;;17.75;52.85;99935.59;5060200;28;20271;-68
2022/12/25 13:20:24;;;;;;;10.52;3.05;;;18.70;63.70;;;17.74;52.95;99939.38;5058387;28;20063;-68
2022/12/25 13:22:51;;;;;;;7.82;3.42;;;18.70;63.80;;;17.73;52.95;99935.06;5062650;28;20052;-67
2022/12/25 13:25:21;;;;;;;9.48;3.25;;;18.70;63.80;;;17.71;53.14;99938.00;5063519;28;20297;-68
2022/12/25 13:27:56;;;;;;;9.50;3.63;;;18.60;64.00;;;17.70;53.12;99933.66;5058321;28;20144;-69
2022/12/25 13:30:25;;;;;;;8.93;3.67;;;18.60;64.00;;;17.70;53.07;99930.16;5059867;28;21538;-67
2022/12/25 13:32:52;;;;;;;8.63;3.42;;;18.60;64.20;;;17.68;53.20;99926.94;5062330;28;20055;-67
2022/12/25 13:35:22;;;;;;;19.83;3.47;;;18.60;64.10;;;17.71;52.96;99931.78;5061733;28;20044;-68
2022/12/25 13:37:49;;;;;;;9.65;3.60;;;18.60;64.00;;;17.71;53.16;99927.22;5062147;28;20043;-67
2022/12/25 13:40:25;;;;;;;7.60;2.92;;;18.60;64.30;;;17.67;53.30;99922.63;5064007;28;20051;-68
2022/12/25 13:47:26;;;;;;;9.18;3.47;;;17.80;66.40;;;16.47;54.90;99908.41;5107956;27;20349;-79
2022/12/25 13:49:55;;;;;;;9.38;3.72;;;17.10;67.70;;;15.64;56.07;99904.75;5085963;28;20147;-79
2022/12/25 13:52:28;;;;;;;7.55;3.88;;;16.50;68.70;;;15.01;57.52;99911.72;5081680;28;20040;-80
2022/12/25 13:54:58;;;;;;;6.65;3.45;;;16.00;70.00;;;14.52;58.92;99909.06;5083309;28;20048;-79
2022/12/25 13:57:31;;;;;;;7.90;4.15;;;15.60;71.50;;;14.11;60.03;99920.06;5084947;28;20071;-79
2022/12/25 13:59:59;;;;;;;9.45;4.82;;;15.20;72.80;;;13.73;61.79;99914.69;5083228;28;20058;-79
2022/12/25 14:02:32;;;;;;;11.68;4.97;;;14.90;74.70;;;13.38;62.53;99911.22;5079729;28;20043;-79
2022/12/25 14:04:59;;;;;;;11.43;5.65;;;14.60;75.70;;;13.08;63.59;99903.47;5076811;28;20128;-79
2022/12/25 14:07:28;;;;;;;13.68;6.75;;;14.30;76.80;;;12.86;64.85;99903.34;5079157;28;20048;-79
2022/12/25 14:10:00;;;;;;;12.68;5.97;;;14.10;78.20;;;12.72;65.41;99903.88;5080155;28;20040;-79
2022/12/25 14:12:31;;;;;;;10.32;5.72;;;13.80;79.00;;;12.62;65.46;99912.50;5078444;28;20040;-79
2022/12/25 14:14:59;;;;;;;;;;;13.70;79.60;;;12.48;66.22;99903.94;5077858;28;20040;-79
2022/12/25 14:17:28;;;;;;;12.20;6.18;;;13.50;80.40;;;12.38;66.63;99906.41;5081749;28;19929;-80
2022/12/25 14:20:00;;;;;;;13.93;7.40;;;13.40;80.80;;;12.27;67.04;99905.41;5081359;28;20048;-80
2022/12/25 14:22:30;;;;;;;13.07;7.47;;;13.30;81.30;;;12.20;67.42;99894.03;5079984;28;20147;-80
2022/12/25 14:24:57;;;;;;;12.23;7.28;;;13.30;82.00;;;12.08;68.17;99890.56;5078271;28;20170;-80
2022/12/25 14:27:29;;;;;;;10.45;6.53;;;13.10;82.60;;;12.02;68.34;99894.19;5079317;28;20032;-80
2022/12/25 14:29:59;;;;;;;17.60;7.57;;;13.10;82.90;;;11.99;68.49;99892.78;5080359;28;20040;-79
2022/12/25 14:32:33;;;;;;;14.47;7.37;;;13.00;83.20;;;11.92;68.89;99888.63;5080623;28;20044;-80
2022/12/25 14:35:02;;;;;;;15.63;7.45;;;13.00;83.70;;;11.89;69.22;99886.41;5079730;28;20666;-80
2022/12/25 14:37:32;;;;;;;13.57;7.43;;;12.90;83.90;;;11.87;69.41;99892.00;5080187;28;20040;-80
2022/12/25 14:40:03;;;;;;;11.98;6.93;;;13.00;84.20;;;11.83;69.69;99894.31;5081195;28;20066;-80
2022/12/25 14:42:34;;;;;;;10.68;6.93;;;12.80;84.60;;;11.80;69.91;99886.72;5077782;28;20043;-79
2022/12/25 14:45:05;;;;;;;12.35;8.30;;;12.80;84.90;;;11.77;69.98;99897.88;5079695;28;20028;-80
2022/12/25 14:47:50;;;;;;;12.95;7.32;;;12.80;84.90;;;11.75;70.04;99889.28;5078847;28;20055;-78
2022/12/25 14:50:26;;;;;;;13.93;7.38;;;12.80;85.10;;;11.72;70.60;99889.75;5095030;28;20427;-78
2022/12/25 14:52:53;;;;;;;12.10;6.88;;;12.70;86.20;;;11.68;71.01;99885.13;5077786;28;20079;-78
2022/12/25 14:55:24;;;;;;;11.75;7.25;;;12.70;86.50;;;11.68;71.14;99893.13;5080231;28;20151;-78
2022/12/25 14:57:55;;;;;;;10.98;7.60;;;12.70;86.70;;;11.66;71.22;99892.53;5071616;28;20123;-78
2022/12/25 15:00:24;;;;;;;;;;;12.60;86.80;;;11.66;71.33;99888.00;5067190;28;20149;-78
2022/12/25 15:02:55;;;;;;;14.00;7.50;;;12.70;86.90;;;11.65;71.39;99898.94;5066680;28;20372;-78
2022/12/25 15:05:33;;;;;;;15.75;8.07;;;12.60;87.00;;;11.62;71.86;99896.75;5065259;28;20083;-79
2022/12/25 15:08:22;;;;;;;12.60;7.47;;;12.60;87.40;;;11.61;71.87;99901.25;5065695;28;20058;-79
2022/12/25 15:10:50;;;;;;;15.93;8.23;;;12.60;87.30;;;11.60;71.91;99900.44;5065053;28;21013;-80
2022/12/25 15:13:17;;;;;;;13.43;8.27;;;12.60;87.50;;;11.60;72.36;99894.28;5066358;28;20040;-78
2022/12/25 15:15:56;;;;;;;14.32;8.38;;;12.60;88.20;;;11.59;72.50;99898.81;5071091;28;20441;-75
2022/12/25 15:18:30;;;;;;;14.75;7.32;;;12.60;88.20;;;11.61;72.27;99879.88;5065132;28;20052;-75
2022/12/25 15:20:58;;;;;;;15.48;8.85;;;12.60;88.10;;;11.60;72.51;99878.25;5068451;28;20044;-78
2022/12/25 15:23:25;;;;;;;18.92;9.70;;;12.60;88.30;;;11.62;72.36;99864.69;5067545;28;20415;-77
2022/12/25 15:25:52;;;;;;;15.38;8.73;;;12.60;88.30;;;11.61;72.13;99855.84;5082969;22;20051;-76
2022/12/25 15:28:20;;;;;;;15.27;9.05;;;12.60;88.10;;;11.65;72.03;99864.19;5055073;28;20049;-75
2022/12/25 15:30:48;;;;;;;13.65;8.63;;;12.60;88.00;;;11.67;72.13;99854.94;5051100;28;20471;-75
2022/12/25 15:33:18;;;;;;;16.70;9.05;;;12.60;88.10;;;11.65;72.39;99848.97;5053582;28;20090;-75
2022/12/25 15:35:47;;;;;;;16.65;9.63;;;12.60;88.20;;;11.64;72.25;99852.72;5052292;28;20469;-76
2022/12/25 15:38:14;;;;;;;12.73;8.38;;;12.60;88.10;;;11.63;72.38;99850.28;5055258;28;20126;-76
2022/12/25 15:40:42;;;;;;;18.75;9.25;;;12.60;88.20;;;11.61;72.49;99845.16;5051630;28;20040;-75
2022/12/25 15:43:13;;;;;;;14.38;8.77;;;12.60;88.30;;;11.63;72.50;99839.59;5054184;28;20127;-76